ADDS METAR Data INFO
IDs: Format: Raw Decoded Include TAF

Data at: 0627 UTC 15 Dec 2017

KSJC 150553Z 00000KT 10SM CLR 12/03 A3016 RMK AO2 SLP212 T01170028 10206 20100 53010
KSJC 150453Z 16003KT 10SM CLR 12/03 A3014 RMK AO2 SLP206 T01170033
KSJC 150353Z 13005KT 10SM CLR 13/04 A3014 RMK AO2 SLP205 T01280039
KSJC 150253Z 00000KT 10SM CLR 14/04 A3013 RMK AO2 SLP202 T01390039 53017
KSJC 150153Z 28004KT 10SM SCT095 14/03 A3011 RMK AO2 SLP196 T01440028
KSJC 150053Z 00000KT 10SM FEW032 SCT095 17/02 A3009 RMK AO2 SLP188 FU FEW032 T01720022
KSJC 142353Z 00000KT 10SM FEW032 SCT095 21/02 A3008 RMK AO2 SLP184 FU FEW032 T02060017 10206 20117 50000
KSJC 142253Z 30006KT 10SM FEW032 SCT095 21/02 A3008 RMK AO2 SLP186 FU FEW032 T02060017
KSJC 142153Z 30007KT 10SM FEW032 SCT095 20/02 A3008 RMK AO2 SLP185 FU FEW032 T02000022
KSJC 142056Z 31003KT 7SM FEW009 FEW030 SCT095 19/04 A3008 RMK AO2 FU FEW009 FU FEW030 T01890039
KSJC 142053Z VRB03KT 7SM FEW030 SCT095 18/04 A3008 RMK AO2 SLP184 FU FEW009 FU FEW030 T01830039 58020
KSJC 141953Z 00000KT 7SM FEW035 FEW100 17/04 A3009 RMK AO2 SLP190 FU FEW035 T01670039
KSJC 141853Z 00000KT 7SM FEW030 FEW100 14/03 A3013 RMK AO2 SLP202 FU FEW030 T01440033
KSJC 141753Z 00000KT 7SM FEW100 12/03 A3014 RMK AO2 SLP204 T01170033 10117 20039 51018
KSJC 141653Z 00000KT 8SM FEW003 08/03 A3012 RMK AO2 SLP200 FU FEW003 T00830033
KSJC 141553Z 13003KT 9SM FEW003 FEW030 06/02 A3010 RMK AO2 SLP192 FU FEW003 FU FEW030 T00560022
KSJC 141453Z 14003KT 10SM CLR 06/02 A3008 RMK AO2 SLP186 T00560022 53008
KSJC 141353Z 00000KT 10SM CLR 04/02 A3007 RMK AO2 SLP183 T00440017
KSJC 141253Z AUTO 00000KT 10SM CLR 05/02 A3006 RMK AO2 SLP178 T00500017
KSJC 141153Z AUTO 12003KT 10SM CLR 05/02 A3006 RMK AO2 SLP178 T00500017 10094 20044 58003
KSJC 141053Z AUTO 15003KT 10SM CLR 05/02 A3006 RMK AO2 SLP179 T00500022
KSJC 140953Z AUTO 00000KT 10SM CLR 06/03 A3007 RMK AO2 SLP182 T00610028
KSJC 140853Z AUTO 13003KT 10SM CLR 06/03 A3007 RMK AO2 SLP181 T00610028 58004
KSJC 140753Z COR 00000KT 10SM FEW004 07/03 A3008 RMK AO2 SLP184 FU FEW004 LAST T00720028 401830017
KSJC 140653Z 00000KT 10SM FEW005 08/03 A3008 RMK AO2 SLP186 FU FEW005 T00830028
KSJC 140553Z 00000KT 10SM FEW006 FEW110 09/03 A3008 RMK AO2 SLP185 FU FEW006 T00940033 10172 20089 51004
KSJC 140453Z 00000KT 10SM FEW006 FEW120 10/04 A3008 RMK AO2 SLP184 HZ FEW006 T01000039
KSJC 140353Z 00000KT 10SM FEW008 FEW120 11/04 A3007 RMK AO2 SLP183 HZ FEW008 T01110044
KSJC 140253Z 00000KT 9SM FEW010 12/04 A3007 RMK AO2 SLP181 FU FEW010 T01170044 55001
KSJC 140153Z 33003KT 10SM FEW017 FEW040 BKN120 14/04 A3006 RMK AO2 SLP180 FU FEW017 FU FEW040 T01390039
KSJC 140053Z 32003KT 10SM FEW017 FEW040 BKN120 16/03 A3007 RMK AO2 SLP181 FU FEW017 FU FEW040 T01560033
KSJC 132353Z 32007KT 10SM FEW017 FEW040 SCT100 17/02 A3007 RMK AO2 SLP182 FU FEW017 FU FEW040 T01720017 10183 20100 56010
KSJC 132253Z 34005KT 10SM FEW017 FEW040 BKN100 18/02 A3007 RMK AO2 SLP182 FU FEW017 FU FEW040 T01780017
KSJC 132153Z 32003KT 10SM FEW017 FEW040 BKN100 18/02 A3008 RMK AO2 SLP184 FU FEW017 FU FEW040 T01780017
KSJC 132053Z 33003KT 10SM FEW017 FEW040 BKN100 16/02 A3010 RMK AO2 SLP192 FU FEW017 FU FEW040 T01610022 58025
KSJC 131953Z 31006KT 10SM FEW013 SCT040 BKN100 14/03 A3013 RMK AO2 SLP202 FU FEW013 FU SCT040 T01440028
KSJC 131853Z VRB03KT 10SM FEW011 SCT034 SCT100 12/04 A3016 RMK AO2 SLP212 FU FEW011 FU SCT034 T01220044